sensor_id;sensor_type;location;lat;lon;timestamp;temperature;humidity
77582;DHT22;66726;52.388;9.986;2023-12-04T00:02:27;-0.20;99.90
77582;DHT22;66726;52.388;9.986;2023-12-04T00:04:56;-0.30;99.90
77582;DHT22;66726;52.388;9.986;2023-12-04T00:07:24;-0.30;99.90
77582;DHT22;66726;52.388;9.986;2023-12-04T00:09:53;-0.20;99.90
77582;DHT22;66726;52.388;9.986;2023-12-04T00:12:22;-0.20;99.90
77582;DHT22;66726;52.388;9.986;2023-12-04T00:14:50;-0.30;99.90
77582;DHT22;66726;52.388;9.986;2023-12-04T00:17:19;-0.20;99.90
77582;DHT22;66726;52.388;9.986;2023-12-04T00:19:47;-0.30;99.90
77582;DHT22;66726;52.388;9.986;2023-12-04T00:22:15;-0.40;99.90
77582;DHT22;66726;52.388;9.986;2023-12-04T00:24:43;-0.30;99.90
77582;DHT22;66726;52.388;9.986;2023-12-04T00:27:11;-0.30;99.90
77582;DHT22;66726;52.388;9.986;2023-12-04T00:29:41;-0.20;99.90
77582;DHT22;66726;52.388;9.986;2023-12-04T00:32:09;-0.20;99.90
77582;DHT22;66726;52.388;9.986;2023-12-04T00:34:37;-0.30;99.90
77582;DHT22;66726;52.388;9.986;2023-12-04T00:37:05;-0.30;99.90
77582;DHT22;66726;52.388;9.986;2023-12-04T00:39:34;-0.40;99.90
77582;DHT22;66726;52.388;9.986;2023-12-04T00:42:02;-0.30;99.90
77582;DHT22;66726;52.388;9.986;2023-12-04T00:44:31;-0.30;99.90
77582;DHT22;66726;52.388;9.986;2023-12-04T00:47:00;-0.40;99.90
77582;DHT22;66726;52.388;9.986;2023-12-04T00:49:29;-0.40;99.90
77582;DHT22;66726;52.388;9.986;2023-12-04T00:51:57;-0.40;99.90
77582;DHT22;66726;52.388;9.986;2023-12-04T00:54:25;-0.50;99.90
77582;DHT22;66726;52.388;9.986;2023-12-04T00:56:54;-0.30;99.90
77582;DHT22;66726;52.388;9.986;2023-12-04T00:59:22;-0.40;99.90
77582;DHT22;66726;52.388;9.986;2023-12-04T01:01:50;-0.30;99.90
77582;DHT22;66726;52.388;9.986;2023-12-04T01:04:19;-0.40;99.90
77582;DHT22;66726;52.388;9.986;2023-12-04T01:06:48;-0.30;99.90
77582;DHT22;66726;52.388;9.986;2023-12-04T01:09:16;-0.30;99.90
77582;DHT22;66726;52.388;9.986;2023-12-04T01:11:44;-0.30;99.90
77582;DHT22;66726;52.388;9.986;2023-12-04T01:14:12;-0.30;99.90
77582;DHT22;66726;52.388;9.986;2023-12-04T01:16:40;-0.30;99.90
77582;DHT22;66726;52.388;9.986;2023-12-04T01:19:08;-0.20;99.90
77582;DHT22;66726;52.388;9.986;2023-12-04T01:21:38;-0.20;99.90
77582;DHT22;66726;52.388;9.986;2023-12-04T01:24:06;-0.20;99.90
77582;DHT22;66726;52.388;9.986;2023-12-04T01:26:34;-0.10;99.90
77582;DHT22;66726;52.388;9.986;2023-12-04T01:29:03;-0.20;99.90
77582;DHT22;66726;52.388;9.986;2023-12-04T01:31:31;-0.20;99.90
77582;DHT22;66726;52.388;9.986;2023-12-04T01:34:00;-0.20;99.90
77582;DHT22;66726;52.388;9.986;2023-12-04T01:36:28;-0.10;99.90
77582;DHT22;66726;52.388;9.986;2023-12-04T01:38:59;0.00;99.90
77582;DHT22;66726;52.388;9.986;2023-12-04T01:41:28;-0.20;99.90
77582;DHT22;66726;52.388;9.986;2023-12-04T01:43:56;-0.10;99.90
77582;DHT22;66726;52.388;9.986;2023-12-04T01:46:24;0.00;99.90
77582;DHT22;66726;52.388;9.986;2023-12-04T01:48:53;-0.10;99.90
77582;DHT22;66726;52.388;9.986;2023-12-04T01:51:23;-0.10;99.90
77582;DHT22;66726;52.388;9.986;2023-12-04T01:53:55;-0.10;99.90
77582;DHT22;66726;52.388;9.986;2023-12-04T01:56:31;0.00;99.90
77582;DHT22;66726;52.388;9.986;2023-12-04T01:59:01;-0.10;99.90
77582;DHT22;66726;52.388;9.986;2023-12-04T02:01:30;-0.10;99.90
77582;DHT22;66726;52.388;9.986;2023-12-04T02:03:59;-0.20;99.90
77582;DHT22;66726;52.388;9.986;2023-12-04T02:06:29;-0.10;99.90
77582;DHT22;66726;52.388;9.986;2023-12-04T02:08:57;-0.10;99.90
77582;DHT22;66726;52.388;9.986;2023-12-04T02:11:27;0.20;99.90
77582;DHT22;66726;52.388;9.986;2023-12-04T02:13:56;-0.10;99.90
77582;DHT22;66726;52.388;9.986;2023-12-04T02:16:26;-0.10;99.90
77582;DHT22;66726;52.388;9.986;2023-12-04T02:18:57;-0.10;99.90
77582;DHT22;66726;52.388;9.986;2023-12-04T02:21:25;-0.10;99.90
77582;DHT22;66726;52.388;9.986;2023-12-04T02:23:54;-0.10;99.90
77582;DHT22;66726;52.388;9.986;2023-12-04T02:26:28;-0.10;99.90
77582;DHT22;66726;52.388;9.986;2023-12-04T02:29:07;-0.10;99.90
77582;DHT22;66726;52.388;9.986;2023-12-04T02:31:40;-0.10;99.90
77582;DHT22;66726;52.388;9.986;2023-12-04T02:34:11;-0.10;99.90
77582;DHT22;66726;52.388;9.986;2023-12-04T02:36:43;-0.20;99.90
77582;DHT22;66726;52.388;9.986;2023-12-04T02:39:14;0.10;99.90
77582;DHT22;66726;52.388;9.986;2023-12-04T02:41:42;-0.10;99.90
77582;DHT22;66726;52.388;9.986;2023-12-04T02:44:11;-0.10;99.90
77582;DHT22;66726;52.388;9.986;2023-12-04T02:46:39;-0.20;99.90
77582;DHT22;66726;52.388;9.986;2023-12-04T02:49:07;-0.20;99.90
77582;DHT22;66726;52.388;9.986;2023-12-04T02:51:35;-0.20;99.90
77582;DHT22;66726;52.388;9.986;2023-12-04T02:54:03;-0.10;99.90
77582;DHT22;66726;52.388;9.986;2023-12-04T02:56:33;-0.10;99.90
77582;DHT22;66726;52.388;9.986;2023-12-04T02:59:01;-0.20;99.90
77582;DHT22;66726;52.388;9.986;2023-12-04T03:01:29;-0.10;99.90
77582;DHT22;66726;52.388;9.986;2023-12-04T03:04:00;-0.20;99.90
77582;DHT22;66726;52.388;9.986;2023-12-04T03:06:28;-0.10;99.90
77582;DHT22;66726;52.388;9.986;2023-12-04T03:08:56;-0.20;99.90
77582;DHT22;66726;52.388;9.986;2023-12-04T03:11:25;-0.20;99.90
77582;DHT22;66726;52.388;9.986;2023-12-04T03:13:55;-0.20;99.90
77582;DHT22;66726;52.388;9.986;2023-12-04T03:16:22;-0.10;99.90
77582;DHT22;66726;52.388;9.986;2023-12-04T03:18:51;-0.20;99.90
77582;DHT22;66726;52.388;9.986;2023-12-04T03:21:19;-0.10;99.90
77582;DHT22;66726;52.388;9.986;2023-12-04T03:23:47;-0.10;99.90
77582;DHT22;66726;52.388;9.986;2023-12-04T03:26:15;-0.10;99.90
77582;DHT22;66726;52.388;9.986;2023-12-04T03:28:43;-0.20;99.90
77582;DHT22;66726;52.388;9.986;2023-12-04T03:31:13;-0.20;99.90
77582;DHT22;66726;52.388;9.986;2023-12-04T03:33:41;-0.10;99.90
77582;DHT22;66726;52.388;9.986;2023-12-04T03:36:10;-0.10;99.90
77582;DHT22;66726;52.388;9.986;2023-12-04T03:38:38;0.00;99.90
77582;DHT22;66726;52.388;9.986;2023-12-04T03:41:13;0.00;99.90
77582;DHT22;66726;52.388;9.986;2023-12-04T03:43:42;0.10;99.90
77582;DHT22;66726;52.388;9.986;2023-12-04T03:46:12;-0.10;99.90
77582;DHT22;66726;52.388;9.986;2023-12-04T03:48:41;0.00;99.90
77582;DHT22;66726;52.388;9.986;2023-12-04T03:51:09;0.00;99.90
77582;DHT22;66726;52.388;9.986;2023-12-04T03:53:37;0.00;99.90
77582;DHT22;66726;52.388;9.986;2023-12-04T03:56:06;0.10;99.90
77582;DHT22;66726;52.388;9.986;2023-12-04T03:58:35;-0.10;99.90
77582;DHT22;66726;52.388;9.986;2023-12-04T04:01:05;0.10;99.90
77582;DHT22;66726;52.388;9.986;2023-12-04T04:03:35;0.00;99.90
77582;DHT22;66726;52.388;9.986;2023-12-04T04:06:04;0.00;99.90
77582;DHT22;66726;52.388;9.986;2023-12-04T04:08:33;0.00;99.90
77582;DHT22;66726;52.388;9.986;2023-12-04T04:11:02;0.00;99.90
77582;DHT22;66726;52.388;9.986;2023-12-04T04:13:31;0.00;99.90
77582;DHT22;66726;52.388;9.986;2023-12-04T04:15:59;0.10;99.90
77582;DHT22;66726;52.388;9.986;2023-12-04T04:18:27;0.00;99.90
77582;DHT22;66726;52.388;9.986;2023-12-04T04:20:57;0.10;99.90
77582;DHT22;66726;52.388;9.986;2023-12-04T04:23:34;0.10;99.90
77582;DHT22;66726;52.388;9.986;2023-12-04T04:26:02;0.10;99.90
77582;DHT22;66726;52.388;9.986;2023-12-04T04:28:31;0.10;99.90
77582;DHT22;66726;52.388;9.986;2023-12-04T04:30:59;0.10;99.90
77582;DHT22;66726;52.388;9.986;2023-12-04T04:33:27;0.10;99.90
77582;DHT22;66726;52.388;9.986;2023-12-04T04:35:57;0.10;99.90
77582;DHT22;66726;52.388;9.986;2023-12-04T04:38:25;0.10;99.90
77582;DHT22;66726;52.388;9.986;2023-12-04T04:40:53;0.10;99.90
77582;DHT22;66726;52.388;9.986;2023-12-04T04:43:21;0.10;99.90
77582;DHT22;66726;52.388;9.986;2023-12-04T04:45:50;0.20;99.90
77582;DHT22;66726;52.388;9.986;2023-12-04T04:48:18;0.20;99.90
77582;DHT22;66726;52.388;9.986;2023-12-04T04:50:46;0.20;99.90
77582;DHT22;66726;52.388;9.986;2023-12-04T04:53:16;0.20;99.90
77582;DHT22;66726;52.388;9.986;2023-12-04T04:55:44;0.20;99.90
77582;DHT22;66726;52.388;9.986;2023-12-04T04:58:15;0.20;99.90
77582;DHT22;66726;52.388;9.986;2023-12-04T05:00:44;0.20;99.90
77582;DHT22;66726;52.388;9.986;2023-12-04T05:03:13;0.10;99.90
77582;DHT22;66726;52.388;9.986;2023-12-04T05:05:41;0.20;99.90
77582;DHT22;66726;52.388;9.986;2023-12-04T05:08:09;0.20;99.90
77582;DHT22;66726;52.388;9.986;2023-12-04T05:10:39;0.20;99.90
77582;DHT22;66726;52.388;9.986;2023-12-04T05:13:07;0.30;99.90
77582;DHT22;66726;52.388;9.986;2023-12-04T05:15:36;0.30;99.90
77582;DHT22;66726;52.388;9.986;2023-12-04T05:18:04;0.30;99.90
77582;DHT22;66726;52.388;9.986;2023-12-04T05:20:32;0.40;99.90
77582;DHT22;66726;52.388;9.986;2023-12-04T05:23:01;0.30;99.90
77582;DHT22;66726;52.388;9.986;2023-12-04T05:25:29;0.30;99.90
77582;DHT22;66726;52.388;9.986;2023-12-04T05:28:08;0.30;99.90
77582;DHT22;66726;52.388;9.986;2023-12-04T05:30:36;0.30;99.90
77582;DHT22;66726;52.388;9.986;2023-12-04T05:33:04;0.30;99.90
77582;DHT22;66726;52.388;9.986;2023-12-04T05:35:33;0.30;99.90
77582;DHT22;66726;52.388;9.986;2023-12-04T05:38:02;0.30;99.90
77582;DHT22;66726;52.388;9.986;2023-12-04T05:40:31;0.30;99.90
77582;DHT22;66726;52.388;9.986;2023-12-04T05:42:59;0.40;99.90
77582;DHT22;66726;52.388;9.986;2023-12-04T05:45:28;0.40;99.90
77582;DHT22;66726;52.388;9.986;2023-12-04T05:47:57;0.40;99.90
77582;DHT22;66726;52.388;9.986;2023-12-04T05:50:25;0.50;99.90
77582;DHT22;66726;52.388;9.986;2023-12-04T05:52:53;0.40;99.90
77582;DHT22;66726;52.388;9.986;2023-12-04T05:55:22;0.40;99.90
77582;DHT22;66726;52.388;9.986;2023-12-04T05:57:50;0.40;99.90
77582;DHT22;66726;52.388;9.986;2023-12-04T06:00:19;0.40;99.90
77582;DHT22;66726;52.388;9.986;2023-12-04T06:02:53;0.30;99.90
77582;DHT22;66726;52.388;9.986;2023-12-04T06:05:23;0.40;99.90
77582;DHT22;66726;52.388;9.986;2023-12-04T06:07:51;0.40;99.90
77582;DHT22;66726;52.388;9.986;2023-12-04T06:10:19;0.50;99.90
77582;DHT22;66726;52.388;9.986;2023-12-04T06:12:47;0.40;99.90
77582;DHT22;66726;52.388;9.986;2023-12-04T06:15:16;0.40;99.90
77582;DHT22;66726;52.388;9.986;2023-12-04T06:17:44;0.40;99.90
77582;DHT22;66726;52.388;9.986;2023-12-04T06:20:14;0.40;99.90
77582;DHT22;66726;52.388;9.986;2023-12-04T06:22:42;0.40;99.90
77582;DHT22;66726;52.388;9.986;2023-12-04T06:25:12;0.50;99.90
77582;DHT22;66726;52.388;9.986;2023-12-04T06:27:42;0.40;99.90
77582;DHT22;66726;52.388;9.986;2023-12-04T06:30:11;0.40;99.90
77582;DHT22;66726;52.388;9.986;2023-12-04T06:32:40;0.40;99.90
77582;DHT22;66726;52.388;9.986;2023-12-04T06:35:10;0.40;99.90
77582;DHT22;66726;52.388;9.986;2023-12-04T06:37:43;0.40;99.90
77582;DHT22;66726;52.388;9.986;2023-12-04T06:40:13;0.50;99.90
77582;DHT22;66726;52.388;9.986;2023-12-04T06:42:42;0.40;99.90
77582;DHT22;66726;52.388;9.986;2023-12-04T06:45:12;0.40;99.90
77582;DHT22;66726;52.388;9.986;2023-12-04T06:47:41;0.40;99.90
77582;DHT22;66726;52.388;9.986;2023-12-04T06:50:11;0.50;99.90
77582;DHT22;66726;52.388;9.986;2023-12-04T06:52:39;0.40;99.90
77582;DHT22;66726;52.388;9.986;2023-12-04T06:55:12;0.50;99.90
77582;DHT22;66726;52.388;9.986;2023-12-04T06:57:40;0.50;99.90
77582;DHT22;66726;52.388;9.986;2023-12-04T07:00:10;0.50;99.90
77582;DHT22;66726;52.388;9.986;2023-12-04T07:02:48;0.50;99.90
77582;DHT22;66726;52.388;9.986;2023-12-04T07:05:17;0.50;99.90
77582;DHT22;66726;52.388;9.986;2023-12-04T07:07:46;0.50;99.90
77582;DHT22;66726;52.388;9.986;2023-12-04T07:10:16;0.50;99.90
77582;DHT22;66726;52.388;9.986;2023-12-04T07:12:47;0.50;99.90
77582;DHT22;66726;52.388;9.986;2023-12-04T07:15:15;0.50;99.90
77582;DHT22;66726;52.388;9.986;2023-12-04T07:17:43;0.50;99.90
77582;DHT22;66726;52.388;9.986;2023-12-04T07:20:12;0.60;99.90
77582;DHT22;66726;52.388;9.986;2023-12-04T07:22:40;0.50;99.90
77582;DHT22;66726;52.388;9.986;2023-12-04T07:25:09;0.50;99.90
77582;DHT22;66726;52.388;9.986;2023-12-04T07:27:38;0.50;99.90
77582;DHT22;66726;52.388;9.986;2023-12-04T07:30:07;0.50;99.90
77582;DHT22;66726;52.388;9.986;2023-12-04T07:32:36;0.50;99.90
77582;DHT22;66726;52.388;9.986;2023-12-04T07:35:05;0.50;99.90
77582;DHT22;66726;52.388;9.986;2023-12-04T07:37:34;0.50;99.90
77582;DHT22;66726;52.388;9.986;2023-12-04T07:40:03;0.50;99.90
77582;DHT22;66726;52.388;9.986;2023-12-04T07:42:34;0.50;99.90
77582;DHT22;66726;52.388;9.986;2023-12-04T07:45:05;0.50;99.90
77582;DHT22;66726;52.388;9.986;2023-12-04T07:47:34;0.50;99.90
77582;DHT22;66726;52.388;9.986;2023-12-04T07:50:02;0.50;99.90
77582;DHT22;66726;52.388;9.986;2023-12-04T07:52:31;0.50;99.90
77582;DHT22;66726;52.388;9.986;2023-12-04T07:54:59;0.60;99.90
77582;DHT22;66726;52.388;9.986;2023-12-04T07:57:27;0.60;99.90
77582;DHT22;66726;52.388;9.986;2023-12-04T07:59:55;0.60;99.90
77582;DHT22;66726;52.388;9.986;2023-12-04T08:02:25;0.60;99.90
77582;DHT22;66726;52.388;9.986;2023-12-04T08:04:53;0.50;99.90
77582;DHT22;66726;52.388;9.986;2023-12-04T08:07:22;0.80;99.90
77582;DHT22;66726;52.388;9.986;2023-12-04T08:09:51;0.60;99.90
77582;DHT22;66726;52.388;9.986;2023-12-04T08:12:20;0.60;99.90
77582;DHT22;66726;52.388;9.986;2023-12-04T08:14:48;0.50;99.90
77582;DHT22;66726;52.388;9.986;2023-12-04T08:17:17;0.60;99.90
77582;DHT22;66726;52.388;9.986;2023-12-04T08:19:46;0.70;99.90
77582;DHT22;66726;52.388;9.986;2023-12-04T08:22:18;0.60;99.90
77582;DHT22;66726;52.388;9.986;2023-12-04T08:24:46;0.60;99.90
77582;DHT22;66726;52.388;9.986;2023-12-04T08:27:15;0.60;99.90
77582;DHT22;66726;52.388;9.986;2023-12-04T08:29:43;0.60;99.90
77582;DHT22;66726;52.388;9.986;2023-12-04T08:32:11;0.60;99.90
77582;DHT22;66726;52.388;9.986;2023-12-04T08:34:39;0.60;99.90
77582;DHT22;66726;52.388;9.986;2023-12-04T08:37:09;0.60;99.90
77582;DHT22;66726;52.388;9.986;2023-12-04T08:39:37;0.60;99.90
77582;DHT22;66726;52.388;9.986;2023-12-04T08:42:05;0.60;99.90
77582;DHT22;66726;52.388;9.986;2023-12-04T08:44:43;0.70;99.90
77582;DHT22;66726;52.388;9.986;2023-12-04T08:47:12;0.60;99.90
77582;DHT22;66726;52.388;9.986;2023-12-04T08:49:40;0.70;99.90
77582;DHT22;66726;52.388;9.986;2023-12-04T08:52:16;0.60;99.90
77582;DHT22;66726;52.388;9.986;2023-12-04T08:54:44;0.70;99.90
77582;DHT22;66726;52.388;9.986;2023-12-04T08:57:12;0.60;99.90
77582;DHT22;66726;52.388;9.986;2023-12-04T08:59:41;0.70;99.90
77582;DHT22;66726;52.388;9.986;2023-12-04T09:02:10;0.80;99.90
77582;DHT22;66726;52.388;9.986;2023-12-04T09:04:40;0.60;99.90
77582;DHT22;66726;52.388;9.986;2023-12-04T09:07:09;0.60;99.90
77582;DHT22;66726;52.388;9.986;2023-12-04T09:09:59;0.60;99.90
77582;DHT22;66726;52.388;9.986;2023-12-04T09:12:36;0.60;99.90
77582;DHT22;66726;52.388;9.986;2023-12-04T09:15:05;0.70;99.90
77582;DHT22;66726;52.388;9.986;2023-12-04T09:17:35;0.60;99.90
77582;DHT22;66726;52.388;9.986;2023-12-04T09:20:06;0.70;99.90
77582;DHT22;66726;52.388;9.986;2023-12-04T09:22:35;0.50;99.90
77582;DHT22;66726;52.388;9.986;2023-12-04T09:25:19;0.70;99.90
77582;DHT22;66726;52.388;9.986;2023-12-04T09:27:48;0.60;99.90
77582;DHT22;66726;52.388;9.986;2023-12-04T09:30:16;0.70;99.90
77582;DHT22;66726;52.388;9.986;2023-12-04T09:32:44;0.60;99.90
77582;DHT22;66726;52.388;9.986;2023-12-04T09:35:13;0.80;99.90
77582;DHT22;66726;52.388;9.986;2023-12-04T09:37:42;0.60;99.90
77582;DHT22;66726;52.388;9.986;2023-12-04T09:40:11;0.70;99.90
77582;DHT22;66726;52.388;9.986;2023-12-04T09:42:40;0.70;99.90
77582;DHT22;66726;52.388;9.986;2023-12-04T09:45:10;0.80;99.90
77582;DHT22;66726;52.388;9.986;2023-12-04T09:47:41;0.80;99.90
77582;DHT22;66726;52.388;9.986;2023-12-04T09:50:10;0.80;99.90
77582;DHT22;66726;52.388;9.986;2023-12-04T09:52:39;0.80;99.90
77582;DHT22;66726;52.388;9.986;2023-12-04T09:55:07;0.80;99.90
77582;DHT22;66726;52.388;9.986;2023-12-04T09:57:35;0.90;99.90
77582;DHT22;66726;52.388;9.986;2023-12-04T10:00:08;1.00;99.90
77582;DHT22;66726;52.388;9.986;2023-12-04T10:02:40;0.90;99.90
77582;DHT22;66726;52.388;9.986;2023-12-04T10:05:09;1.00;99.90
77582;DHT22;66726;52.388;9.986;2023-12-04T10:07:37;1.10;99.90
77582;DHT22;66726;52.388;9.986;2023-12-04T10:10:08;1.00;99.90
77582;DHT22;66726;52.388;9.986;2023-12-04T10:12:37;1.10;99.90
77582;DHT22;66726;52.388;9.986;2023-12-04T10:15:08;1.10;99.90
77582;DHT22;66726;52.388;9.986;2023-12-04T10:17:39;1.10;99.90
77582;DHT22;66726;52.388;9.986;2023-12-04T10:20:10;1.20;99.90
77582;DHT22;66726;52.388;9.986;2023-12-04T10:22:55;1.10;99.90
77582;DHT22;66726;52.388;9.986;2023-12-04T10:25:25;1.30;99.90
77582;DHT22;66726;52.388;9.986;2023-12-04T10:28:07;1.20;99.90
77582;DHT22;66726;52.388;9.986;2023-12-04T10:30:38;1.20;99.90
77582;DHT22;66726;52.388;9.986;2023-12-04T10:33:07;1.30;99.90
77582;DHT22;66726;52.388;9.986;2023-12-04T10:35:37;1.30;99.90
77582;DHT22;66726;52.388;9.986;2023-12-04T10:38:06;1.20;99.90
77582;DHT22;66726;52.388;9.986;2023-12-04T10:40:36;1.30;99.90
77582;DHT22;66726;52.388;9.986;2023-12-04T10:43:14;1.30;99.90
77582;DHT22;66726;52.388;9.986;2023-12-04T10:45:46;1.30;99.90
77582;DHT22;66726;52.388;9.986;2023-12-04T10:48:17;1.30;99.90
77582;DHT22;66726;52.388;9.986;2023-12-04T10:50:48;1.40;99.90
77582;DHT22;66726;52.388;9.986;2023-12-04T10:53:17;1.30;99.90
77582;DHT22;66726;52.388;9.986;2023-12-04T10:55:45;1.30;99.90
77582;DHT22;66726;52.388;9.986;2023-12-04T10:58:18;1.40;99.90
77582;DHT22;66726;52.388;9.986;2023-12-04T11:00:50;1.40;99.90
77582;DHT22;66726;52.388;9.986;2023-12-04T11:03:34;1.40;99.90
77582;DHT22;66726;52.388;9.986;2023-12-04T11:06:11;1.30;99.90
77582;DHT22;66726;52.388;9.986;2023-12-04T11:08:47;1.30;99.90
77582;DHT22;66726;52.388;9.986;2023-12-04T11:11:21;1.40;99.90
77582;DHT22;66726;52.388;9.986;2023-12-04T11:13:58;1.30;99.90
77582;DHT22;66726;52.388;9.986;2023-12-04T11:16:34;1.30;99.90
77582;DHT22;66726;52.388;9.986;2023-12-04T11:19:18;1.40;99.90
77582;DHT22;66726;52.388;9.986;2023-12-04T11:21:50;1.40;99.90
77582;DHT22;66726;52.388;9.986;2023-12-04T11:24:18;1.40;99.90
77582;DHT22;66726;52.388;9.986;2023-12-04T11:26:49;1.60;99.90
77582;DHT22;66726;52.388;9.986;2023-12-04T11:29:18;1.40;99.90
77582;DHT22;66726;52.388;9.986;2023-12-04T11:31:48;1.40;99.90
77582;DHT22;66726;52.388;9.986;2023-12-04T11:34:17;1.50;99.90
77582;DHT22;66726;52.388;9.986;2023-12-04T11:36:45;1.40;99.90
77582;DHT22;66726;52.388;9.986;2023-12-04T11:39:14;1.40;99.90
77582;DHT22;66726;52.388;9.986;2023-12-04T11:41:42;1.40;99.90
77582;DHT22;66726;52.388;9.986;2023-12-04T11:44:14;1.60;99.90
77582;DHT22;66726;52.388;9.986;2023-12-04T11:46:56;1.30;99.90
77582;DHT22;66726;52.388;9.986;2023-12-04T11:49:33;1.40;99.90
77582;DHT22;66726;52.388;9.986;2023-12-04T11:52:03;1.50;99.90
77582;DHT22;66726;52.388;9.986;2023-12-04T11:54:56;1.40;99.90
77582;DHT22;66726;52.388;9.986;2023-12-04T11:57:27;1.40;99.90
77582;DHT22;66726;52.388;9.986;2023-12-04T12:00:13;1.40;99.90
77582;DHT22;66726;52.388;9.986;2023-12-04T12:03:01;1.40;99.90
77582;DHT22;66726;52.388;9.986;2023-12-04T12:05:49;1.40;99.90
77582;DHT22;66726;52.388;9.986;2023-12-04T12:08:20;1.50;99.90
77582;DHT22;66726;52.388;9.986;2023-12-04T12:10:51;1.50;99.90
77582;DHT22;66726;52.388;9.986;2023-12-04T12:13:20;1.40;99.90
77582;DHT22;66726;52.388;9.986;2023-12-04T12:15:50;1.50;99.90
77582;DHT22;66726;52.388;9.986;2023-12-04T12:18:21;1.50;99.90
77582;DHT22;66726;52.388;9.986;2023-12-04T12:20:54;1.50;99.90
77582;DHT22;66726;52.388;9.986;2023-12-04T12:23:24;1.60;99.90
77582;DHT22;66726;52.388;9.986;2023-12-04T12:25:52;1.50;99.90
77582;DHT22;66726;52.388;9.986;2023-12-04T12:28:22;1.50;99.90
77582;DHT22;66726;52.388;9.986;2023-12-04T12:30:51;1.50;99.90
77582;DHT22;66726;52.388;9.986;2023-12-04T12:33:21;1.50;99.90
77582;DHT22;66726;52.388;9.986;2023-12-04T12:35:50;1.60;99.90
77582;DHT22;66726;52.388;9.986;2023-12-04T12:38:29;1.60;99.90
77582;DHT22;66726;52.388;9.986;2023-12-04T12:41:01;1.50;99.90
77582;DHT22;66726;52.388;9.986;2023-12-04T12:43:29;1.50;99.90
77582;DHT22;66726;52.388;9.986;2023-12-04T12:45:57;1.50;99.90
77582;DHT22;66726;52.388;9.986;2023-12-04T12:48:29;1.40;99.90
77582;DHT22;66726;52.388;9.986;2023-12-04T12:50:59;1.40;99.90
77582;DHT22;66726;52.388;9.986;2023-12-04T12:53:27;1.50;99.90
77582;DHT22;66726;52.388;9.986;2023-12-04T12:55:55;1.40;99.90
77582;DHT22;66726;52.388;9.986;2023-12-04T12:58:23;1.40;99.90
77582;DHT22;66726;52.388;9.986;2023-12-04T13:00:52;1.40;99.90
77582;DHT22;66726;52.388;9.986;2023-12-04T13:03:21;1.40;99.90
77582;DHT22;66726;52.388;9.986;2023-12-04T13:05:51;1.40;99.90
77582;DHT22;66726;52.388;9.986;2023-12-04T13:08:19;1.60;99.90
77582;DHT22;66726;52.388;9.986;2023-12-04T13:10:47;1.40;99.90
77582;DHT22;66726;52.388;9.986;2023-12-04T13:13:17;1.50;99.90
77582;DHT22;66726;52.388;9.986;2023-12-04T13:15:45;1.50;99.90
77582;DHT22;66726;52.388;9.986;2023-12-04T13:18:13;1.30;99.90
77582;DHT22;66726;52.388;9.986;2023-12-04T13:20:41;1.40;99.90
77582;DHT22;66726;52.388;9.986;2023-12-04T13:23:11;1.40;99.90
77582;DHT22;66726;52.388;9.986;2023-12-04T13:25:39;1.40;99.90
77582;DHT22;66726;52.388;9.986;2023-12-04T13:28:07;1.50;99.90
77582;DHT22;66726;52.388;9.986;2023-12-04T13:30:49;1.50;99.90
77582;DHT22;66726;52.388;9.986;2023-12-04T13:33:17;1.50;99.90
77582;DHT22;66726;52.388;9.986;2023-12-04T13:35:46;1.40;99.90
77582;DHT22;66726;52.388;9.986;2023-12-04T13:38:15;1.30;99.90
77582;DHT22;66726;52.388;9.986;2023-12-04T13:40:52;1.40;99.90
77582;DHT22;66726;52.388;9.986;2023-12-04T13:43:35;1.40;99.90
77582;DHT22;66726;52.388;9.986;2023-12-04T13:46:17;1.40;99.90
77582;DHT22;66726;52.388;9.986;2023-12-04T13:48:49;1.40;99.90
77582;DHT22;66726;52.388;9.986;2023-12-04T13:51:17;1.40;99.90
77582;DHT22;66726;52.388;9.986;2023-12-04T13:53:47;1.40;99.90
77582;DHT22;66726;52.388;9.986;2023-12-04T13:56:21;1.30;99.90
77582;DHT22;66726;52.388;9.986;2023-12-04T13:59:08;1.40;99.90
77582;DHT22;66726;52.388;9.986;2023-12-04T14:01:45;1.30;99.90
77582;DHT22;66726;52.388;9.986;2023-12-04T14:04:13;1.30;99.90
77582;DHT22;66726;52.388;9.986;2023-12-04T14:06:42;1.40;99.90
77582;DHT22;66726;52.388;9.986;2023-12-04T14:09:13;1.30;99.90
77582;DHT22;66726;52.388;9.986;2023-12-04T14:11:43;1.40;99.90
77582;DHT22;66726;52.388;9.986;2023-12-04T14:14:12;1.30;99.90
77582;DHT22;66726;52.388;9.986;2023-12-04T14:16:40;1.40;99.90
77582;DHT22;66726;52.388;9.986;2023-12-04T14:19:09;1.30;99.90
77582;DHT22;66726;52.388;9.986;2023-12-04T14:21:39;1.40;99.90
77582;DHT22;66726;52.388;9.986;2023-12-04T14:24:07;1.30;99.90
77582;DHT22;66726;52.388;9.986;2023-12-04T14:26:36;1.30;99.90
77582;DHT22;66726;52.388;9.986;2023-12-04T14:29:04;1.30;99.90
77582;DHT22;66726;52.388;9.986;2023-12-04T14:31:34;1.20;99.90
77582;DHT22;66726;52.388;9.986;2023-12-04T14:34:03;1.30;99.90
77582;DHT22;66726;52.388;9.986;2023-12-04T14:36:31;1.20;99.90
77582;DHT22;66726;52.388;9.986;2023-12-04T14:38:59;1.20;99.90
77582;DHT22;66726;52.388;9.986;2023-12-04T14:41:27;1.20;99.90
77582;DHT22;66726;52.388;9.986;2023-12-04T14:43:57;1.30;99.90
77582;DHT22;66726;52.388;9.986;2023-12-04T14:46:26;1.20;99.90
77582;DHT22;66726;52.388;9.986;2023-12-04T14:48:55;1.30;99.90
77582;DHT22;66726;52.388;9.986;2023-12-04T14:51:23;1.20;99.90
77582;DHT22;66726;52.388;9.986;2023-12-04T14:53:53;1.30;99.90
77582;DHT22;66726;52.388;9.986;2023-12-04T14:56:41;1.30;99.90
77582;DHT22;66726;52.388;9.986;2023-12-04T14:59:28;1.30;99.90
77582;DHT22;66726;52.388;9.986;2023-12-04T15:02:23;1.30;99.90
77582;DHT22;66726;52.388;9.986;2023-12-04T15:05:34;1.30;99.90
77582;DHT22;66726;52.388;9.986;2023-12-04T15:08:40;1.30;99.90
77582;DHT22;66726;52.388;9.986;2023-12-04T15:11:37;1.40;99.90
77582;DHT22;66726;52.388;9.986;2023-12-04T15:14:31;1.30;99.90
77582;DHT22;66726;52.388;9.986;2023-12-04T15:17:07;1.30;99.90
77582;DHT22;66726;52.388;9.986;2023-12-04T15:19:44;1.40;99.90
77582;DHT22;66726;52.388;9.986;2023-12-04T15:22:42;1.40;99.90
77582;DHT22;66726;52.388;9.986;2023-12-04T15:25:10;1.30;99.90
77582;DHT22;66726;52.388;9.986;2023-12-04T15:27:38;1.30;99.90
77582;DHT22;66726;52.388;9.986;2023-12-04T15:30:09;1.20;99.90
77582;DHT22;66726;52.388;9.986;2023-12-04T15:32:39;1.20;99.90
77582;DHT22;66726;52.388;9.986;2023-12-04T15:35:07;1.20;99.90
77582;DHT22;66726;52.388;9.986;2023-12-04T15:37:40;1.10;99.90
77582;DHT22;66726;52.388;9.986;2023-12-04T15:40:08;1.30;99.90
77582;DHT22;66726;52.388;9.986;2023-12-04T15:42:38;1.10;99.90
77582;DHT22;66726;52.388;9.986;2023-12-04T15:45:08;1.30;99.90
77582;DHT22;66726;52.388;9.986;2023-12-04T15:47:36;1.10;99.90
77582;DHT22;66726;52.388;9.986;2023-12-04T15:50:06;1.20;99.90
77582;DHT22;66726;52.388;9.986;2023-12-04T15:52:34;1.20;99.90
77582;DHT22;66726;52.388;9.986;2023-12-04T15:55:08;1.00;99.90
77582;DHT22;66726;52.388;9.986;2023-12-04T15:57:38;1.10;99.90
77582;DHT22;66726;52.388;9.986;2023-12-04T16:00:08;1.20;99.90
77582;DHT22;66726;52.388;9.986;2023-12-04T16:02:40;1.10;99.90
77582;DHT22;66726;52.388;9.986;2023-12-04T16:05:07;1.20;99.90